sensor_id;sensor_type;location;lat;lon;timestamp;pressure;altitude;pressure_sealevel;temperature;humidity
73341;BME280;61578;52.002;5.468;2023-07-31T00:00:24;100896.09;;;17.28;89.78
73341;BME280;61578;52.002;5.468;2023-07-31T00:01:14;100856.09;;;17.06;89.54
73341;BME280;61578;52.002;5.468;2023-07-31T00:01:44;100909.66;;;17.36;89.94
73341;BME280;61578;52.002;5.468;2023-07-31T00:02:34;100908.78;;;17.36;89.29
73341;BME280;61578;52.002;5.468;2023-07-31T00:03:05;100867.22;;;17.11;89.63
73341;BME280;61578;52.002;5.468;2023-07-31T00:03:35;100906.25;;;17.34;89.84
73341;BME280;61578;52.002;5.468;2023-07-31T00:04:25;100896.63;;;17.32;91.08
73341;BME280;61578;52.002;5.468;2023-07-31T00:05:15;100895.66;;;17.42;91.44
73341;BME280;61578;52.002;5.468;2023-07-31T00:05:55;100897.22;;;17.45;90.62
73341;BME280;61578;52.002;5.468;2023-07-31T00:06:45;100900.75;;;17.45;90.57
73341;BME280;61578;52.002;5.468;2023-07-31T00:07:34;100854.69;;;17.21;90.25
73341;BME280;61578;52.002;5.468;2023-07-31T00:08:23;100889.75;;;17.48;90.86
73341;BME280;61578;52.002;5.468;2023-07-31T00:08:56;100900.16;;;17.51;90.48
73341;BME280;61578;52.002;5.468;2023-07-31T00:09:46;100900.16;;;17.51;90.28
73341;BME280;61578;52.002;5.468;2023-07-31T00:10:17;100888.19;;;17.46;89.94
73341;BME280;61578;52.002;5.468;2023-07-31T00:10:51;100894.81;;;17.51;89.95
73341;BME280;61578;52.002;5.468;2023-07-31T00:11:34;100886.06;;;17.49;89.73
73341;BME280;61578;52.002;5.468;2023-07-31T00:12:11;100894.81;;;17.51;90.02
73341;BME280;61578;52.002;5.468;2023-07-31T00:12:44;100895.66;;;17.52;90.22
73341;BME280;61578;52.002;5.468;2023-07-31T00:13:19;100898.19;;;17.53;90.27
73341;BME280;61578;52.002;5.468;2023-07-31T00:13:50;100891.44;;;17.49;90.32
73341;BME280;61578;52.002;5.468;2023-07-31T00:14:23;100887.31;;;17.55;90.32
73341;BME280;61578;52.002;5.468;2023-07-31T00:14:57;100885.50;;;17.55;90.38
73341;BME280;61578;52.002;5.468;2023-07-31T00:15:46;100892.28;;;17.59;90.33
73341;BME280;61578;52.002;5.468;2023-07-31T00:16:20;100885.06;;;17.60;90.66
73341;BME280;61578;52.002;5.468;2023-07-31T00:16:51;100893.97;;;17.60;90.67
73341;BME280;61578;52.002;5.468;2023-07-31T00:17:40;100873.75;;;17.56;90.65
73341;BME280;61578;52.002;5.468;2023-07-31T00:18:11;100831.81;;;17.36;90.62
73341;BME280;61578;52.002;5.468;2023-07-31T00:18:42;100840.97;;;17.43;90.99
73341;BME280;61578;52.002;5.468;2023-07-31T00:19:31;100879.03;;;17.68;90.75
73341;BME280;61578;52.002;5.468;2023-07-31T00:20:21;100881.44;;;17.71;90.86
73341;BME280;61578;52.002;5.468;2023-07-31T00:20:51;100878.88;;;17.69;91.07
73341;BME280;61578;52.002;5.468;2023-07-31T00:21:41;100870.81;;;17.69;90.81
73341;BME280;61578;52.002;5.468;2023-07-31T00:22:30;100872.94;;;17.75;91.36
73341;BME280;61578;52.002;5.468;2023-07-31T00:23:04;100872.66;;;17.78;91.39
73341;BME280;61578;52.002;5.468;2023-07-31T00:23:35;100828.13;;;17.56;91.60
73341;BME280;61578;52.002;5.468;2023-07-31T00:24:06;100874.75;;;17.84;91.57
73341;BME280;61578;52.002;5.468;2023-07-31T00:24:36;100871.06;;;17.85;91.48
73341;BME280;61578;52.002;5.468;2023-07-31T00:25:10;100873.47;;;17.88;91.54
73341;BME280;61578;52.002;5.468;2023-07-31T00:25:41;100869.09;;;17.87;91.25
73341;BME280;61578;52.002;5.468;2023-07-31T00:26:12;100877.53;;;17.92;91.82
73341;BME280;61578;52.002;5.468;2023-07-31T00:26:46;100873.03;;;17.93;91.82
73341;BME280;61578;52.002;5.468;2023-07-31T00:27:17;100871.75;;;17.97;91.76
73341;BME280;61578;52.002;5.468;2023-07-31T00:27:48;100872.31;;;18.00;92.02
73341;BME280;61578;52.002;5.468;2023-07-31T00:28:18;100866.63;;;18.03;91.76
73341;BME280;61578;52.002;5.468;2023-07-31T00:28:49;100872.72;;;18.06;91.40
73341;BME280;61578;52.002;5.468;2023-07-31T00:29:39;100862.69;;;18.08;91.68
73341;BME280;61578;52.002;5.468;2023-07-31T00:30:28;100868.44;;;18.13;91.47
73341;BME280;61578;52.002;5.468;2023-07-31T00:30:59;100872.84;;;18.14;91.88
73341;BME280;61578;52.002;5.468;2023-07-31T00:31:48;100879.63;;;18.18;91.74
73341;BME280;61578;52.002;5.468;2023-07-31T00:32:38;100871.56;;;18.18;91.97
73341;BME280;61578;52.002;5.468;2023-07-31T00:33:27;100864.75;;;18.23;91.90
73341;BME280;61578;52.002;5.468;2023-07-31T00:34:17;100870.81;;;18.25;91.70
73341;BME280;61578;52.002;5.468;2023-07-31T00:35:06;100869.53;;;18.29;91.72
73341;BME280;61578;52.002;5.468;2023-07-31T00:35:37;100876.47;;;18.32;91.98
73341;BME280;61578;52.002;5.468;2023-07-31T00:36:27;100880.81;;;18.33;91.80
73341;BME280;61578;52.002;5.468;2023-07-31T00:37:09;100875.88;;;18.38;92.01
73341;BME280;61578;52.002;5.468;2023-07-31T00:37:40;100867.94;;;18.36;92.07
73341;BME280;61578;52.002;5.468;2023-07-31T00:38:30;100874.75;;;18.41;92.11
73341;BME280;61578;52.002;5.468;2023-07-31T00:39:15;100857.06;;;18.38;91.94
73341;BME280;61578;52.002;5.468;2023-07-31T00:39:47;100868.91;;;18.45;91.81
73341;BME280;61578;52.002;5.468;2023-07-31T00:40:36;100872.00;;;18.50;91.58
73341;BME280;61578;52.002;5.468;2023-07-31T00:41:19;100879.75;;;18.53;91.64
73341;BME280;61578;52.002;5.468;2023-07-31T00:41:50;100876.91;;;18.55;91.54
73341;BME280;61578;52.002;5.468;2023-07-31T00:42:21;100870.03;;;18.52;91.29
73341;BME280;61578;52.002;5.468;2023-07-31T00:42:52;100873.53;;;18.53;91.20
73341;BME280;61578;52.002;5.468;2023-07-31T00:43:25;100870.03;;;18.52;90.92
73341;BME280;61578;52.002;5.468;2023-07-31T00:43:56;100877.63;;;18.57;90.92
73341;BME280;61578;52.002;5.468;2023-07-31T00:44:46;100866.03;;;18.56;91.19
73341;BME280;61578;52.002;5.468;2023-07-31T00:45:32;100871.84;;;18.61;90.89
73341;BME280;61578;52.002;5.468;2023-07-31T00:46:22;100873.53;;;18.62;91.22
73341;BME280;61578;52.002;5.468;2023-07-31T00:46:54;100866.28;;;18.63;91.37
73341;BME280;61578;52.002;5.468;2023-07-31T00:47:35;100871.38;;;18.66;90.79
73341;BME280;61578;52.002;5.468;2023-07-31T00:48:25;100864.44;;;18.63;91.26
73341;BME280;61578;52.002;5.468;2023-07-31T00:49:16;100869.53;;;18.66;90.92
73341;BME280;61578;52.002;5.468;2023-07-31T00:50:07;100872.84;;;18.60;90.65
73341;BME280;61578;52.002;5.468;2023-07-31T00:50:57;100871.22;;;18.67;90.83
73341;BME280;61578;52.002;5.468;2023-07-31T00:51:43;100873.94;;;18.67;90.78
73341;BME280;61578;52.002;5.468;2023-07-31T00:52:32;100801.94;;;18.24;90.36
73341;BME280;61578;52.002;5.468;2023-07-31T00:53:22;100870.25;;;18.68;90.40
73341;BME280;61578;52.002;5.468;2023-07-31T00:53:55;100869.81;;;18.63;90.70
73341;BME280;61578;52.002;5.468;2023-07-31T00:54:44;100827.00;;;18.43;90.85
73341;BME280;61578;52.002;5.468;2023-07-31T00:55:34;100855.84;;;18.60;90.56
73341;BME280;61578;52.002;5.468;2023-07-31T00:56:24;100866.84;;;18.66;90.46
73341;BME280;61578;52.002;5.468;2023-07-31T00:56:56;100873.94;;;18.67;90.76
73341;BME280;61578;52.002;5.468;2023-07-31T00:57:46;100872.09;;;18.68;90.41
73341;BME280;61578;52.002;5.468;2023-07-31T00:58:36;100877.31;;;18.69;90.20
73341;BME280;61578;52.002;5.468;2023-07-31T00:59:25;100864.00;;;18.68;89.96
73341;BME280;61578;52.002;5.468;2023-07-31T00:59:56;100864.00;;;18.68;90.63
73341;BME280;61578;52.002;5.468;2023-07-31T01:00:27;100865.72;;;18.69;90.36
73341;BME280;61578;52.002;5.468;2023-07-31T01:00:58;100858.06;;;18.64;90.28
73341;BME280;61578;52.002;5.468;2023-07-31T01:01:31;100871.38;;;18.66;90.44
73341;BME280;61578;52.002;5.468;2023-07-31T01:02:11;100864.88;;;18.68;90.43
73341;BME280;61578;52.002;5.468;2023-07-31T01:02:42;100877.31;;;18.69;90.05
73341;BME280;61578;52.002;5.468;2023-07-31T01:03:32;100867.56;;;18.68;90.34
73341;BME280;61578;52.002;5.468;2023-07-31T01:04:17;100857.56;;;18.61;90.43
73341;BME280;61578;52.002;5.468;2023-07-31T01:04:49;100875.63;;;18.68;89.96
73341;BME280;61578;52.002;5.468;2023-07-31T01:06:40;100861.31;;;18.68;90.13
73341;BME280;61578;52.002;5.468;2023-07-31T01:07:53;100870.25;;;18.68;90.41
73341;BME280;61578;52.002;5.468;2023-07-31T01:08:38;100876.75;;;18.66;90.37
73341;BME280;61578;52.002;5.468;2023-07-31T01:09:47;100863.47;;;18.64;90.46
73341;BME280;61578;52.002;5.468;2023-07-31T01:10:41;100822.66;;;18.42;90.44
73341;BME280;61578;52.002;5.468;2023-07-31T01:11:28;100860.09;;;18.62;90.21
73341;BME280;61578;52.002;5.468;2023-07-31T01:12:20;100866.56;;;18.69;91.12
73341;BME280;61578;52.002;5.468;2023-07-31T01:12:53;100861.19;;;18.69;90.72
73341;BME280;61578;52.002;5.468;2023-07-31T01:13:28;100824.75;;;18.48;90.85
73341;BME280;61578;52.002;5.468;2023-07-31T01:14:19;100870.09;;;18.70;90.24
73341;BME280;61578;52.002;5.468;2023-07-31T01:15:05;100869.25;;;18.69;90.49
73341;BME280;61578;52.002;5.468;2023-07-31T01:15:59;100867.41;;;18.70;90.16
73341;BME280;61578;52.002;5.468;2023-07-31T01:16:30;100841.97;;;18.55;90.06
73341;BME280;61578;52.002;5.468;2023-07-31T01:17:16;100863.16;;;18.67;90.16
73341;BME280;61578;52.002;5.468;2023-07-31T01:17:46;100860.47;;;18.67;90.06
73341;BME280;61578;52.002;5.468;2023-07-31T01:18:36;100858.78;;;18.66;90.63
73341;BME280;61578;52.002;5.468;2023-07-31T01:19:27;100863.16;;;18.67;90.32
73341;BME280;61578;52.002;5.468;2023-07-31T01:20:25;100849.47;;;18.61;90.54
73341;BME280;61578;52.002;5.468;2023-07-31T01:21:07;100859.47;;;18.68;90.41
73341;BME280;61578;52.002;5.468;2023-07-31T01:25:19;100857.78;;;18.67;89.99
73341;BME280;61578;52.002;5.468;2023-07-31T01:26:38;100860.47;;;18.67;89.59
73341;BME280;61578;52.002;5.468;2023-07-31T01:27:17;100856.25;;;18.65;89.41
73341;BME280;61578;52.002;5.468;2023-07-31T01:28:03;100866.84;;;18.66;89.74
73341;BME280;61578;52.002;5.468;2023-07-31T01:30:33;100858.63;;;18.68;90.15
73341;BME280;61578;52.002;5.468;2023-07-31T01:31:24;100850.72;;;18.66;90.17
73341;BME280;61578;52.002;5.468;2023-07-31T01:32:02;100850.72;;;18.66;90.10
73341;BME280;61578;52.002;5.468;2023-07-31T01:32:35;100855.09;;;18.67;90.20
73341;BME280;61578;52.002;5.468;2023-07-31T01:33:07;100853.53;;;18.65;90.18
73341;BME280;61578;52.002;5.468;2023-07-31T01:33:40;100854.25;;;18.67;90.22
73341;BME280;61578;52.002;5.468;2023-07-31T01:34:14;100849.72;;;18.67;90.03
73341;BME280;61578;52.002;5.468;2023-07-31T01:34:51;100854.41;;;18.65;89.90
73341;BME280;61578;52.002;5.468;2023-07-31T01:35:27;100846.47;;;18.64;90.57
73341;BME280;61578;52.002;5.468;2023-07-31T01:36:01;100861.31;;;18.68;90.28
73341;BME280;61578;52.002;5.468;2023-07-31T01:36:32;100854.09;;;18.68;89.85
73341;BME280;61578;52.002;5.468;2023-07-31T01:37:03;100855.09;;;18.67;90.06
73341;BME280;61578;52.002;5.468;2023-07-31T01:37:34;100861.47;;;18.66;89.88
73341;BME280;61578;52.002;5.468;2023-07-31T01:38:05;100848.31;;;18.63;90.20
73341;BME280;61578;52.002;5.468;2023-07-31T01:38:36;100844.78;;;18.63;90.08
73341;BME280;61578;52.002;5.468;2023-07-31T01:39:07;100858.78;;;18.66;90.18
73341;BME280;61578;52.002;5.468;2023-07-31T01:39:37;100859.47;;;18.68;89.88
73341;BME280;61578;52.002;5.468;2023-07-31T01:40:09;100862.16;;;18.68;90.19
73341;BME280;61578;52.002;5.468;2023-07-31T01:40:42;100858.63;;;18.68;90.05
73341;BME280;61578;52.002;5.468;2023-07-31T01:41:13;100856.78;;;18.68;90.18
73341;BME280;61578;52.002;5.468;2023-07-31T01:41:46;100858.63;;;18.68;90.40
73341;BME280;61578;52.002;5.468;2023-07-31T01:42:17;100844.63;;;18.64;90.02
73341;BME280;61578;52.002;5.468;2023-07-31T01:42:47;100858.50;;;18.69;90.33
73341;BME280;61578;52.002;5.468;2023-07-31T01:43:18;100854.41;;;18.65;90.66
73341;BME280;61578;52.002;5.468;2023-07-31T01:43:49;100857.66;;;18.69;90.22
73341;BME280;61578;52.002;5.468;2023-07-31T01:44:20;100857.09;;;18.65;90.36
73341;BME280;61578;52.002;5.468;2023-07-31T01:44:54;100854.94;;;18.69;90.22
73341;BME280;61578;52.002;5.468;2023-07-31T01:45:28;100852.25;;;18.69;90.63
73341;BME280;61578;52.002;5.468;2023-07-31T01:45:58;100858.50;;;18.69;90.27
73341;BME280;61578;52.002;5.468;2023-07-31T01:46:32;100842.41;;;18.60;90.46
73341;BME280;61578;52.002;5.468;2023-07-31T01:47:06;100861.19;;;18.69;90.59
73341;BME280;61578;52.002;5.468;2023-07-31T01:47:37;100870.25;;;18.68;90.33
73341;BME280;61578;52.002;5.468;2023-07-31T01:48:10;100815.44;;;18.42;89.91
73341;BME280;61578;52.002;5.468;2023-07-31T01:48:41;100859.63;;;18.67;90.44
73341;BME280;61578;52.002;5.468;2023-07-31T01:49:12;100857.41;;;18.62;89.79
73341;BME280;61578;52.002;5.468;2023-07-31T01:49:43;100867.69;;;18.67;89.71
73341;BME280;61578;52.002;5.468;2023-07-31T01:50:14;100860.63;;;18.66;89.92
73341;BME280;61578;52.002;5.468;2023-07-31T01:50:45;100868.69;;;18.66;89.84
73341;BME280;61578;52.002;5.468;2023-07-31T01:51:34;100859.06;;;18.63;89.90
73341;BME280;61578;52.002;5.468;2023-07-31T01:52:06;100860.38;;;18.59;89.64
73341;BME280;61578;52.002;5.468;2023-07-31T01:52:37;100860.63;;;18.56;89.55
73341;BME280;61578;52.002;5.468;2023-07-31T01:53:11;100855.84;;;18.60;89.67
73341;BME280;61578;52.002;5.468;2023-07-31T01:53:42;100863.06;;;18.59;90.27
73341;BME280;61578;52.002;5.468;2023-07-31T01:54:16;100856.00;;;18.58;90.22
73341;BME280;61578;52.002;5.468;2023-07-31T01:54:47;100861.50;;;18.57;89.83
73341;BME280;61578;52.002;5.468;2023-07-31T01:55:37;100857.84;;;18.58;90.30
73341;BME280;61578;52.002;5.468;2023-07-31T01:56:20;100859.78;;;18.56;90.00
73341;BME280;61578;52.002;5.468;2023-07-31T01:56:50;100854.31;;;18.57;89.72
73341;BME280;61578;52.002;5.468;2023-07-31T01:57:39;100851.63;;;18.57;90.12
73341;BME280;61578;52.002;5.468;2023-07-31T01:58:25;100860.25;;;18.51;90.04
73341;BME280;61578;52.002;5.468;2023-07-31T01:58:56;100866.31;;;18.53;90.09
73341;BME280;61578;52.002;5.468;2023-07-31T01:59:33;100866.47;;;18.52;90.01
73341;BME280;61578;52.002;5.468;2023-07-31T02:00:22;100860.41;;;18.50;90.36
73341;BME280;61578;52.002;5.468;2023-07-31T02:00:53;100861.25;;;18.50;90.86
73341;BME280;61578;52.002;5.468;2023-07-31T02:01:42;100847.38;;;18.45;90.61
73341;BME280;61578;52.002;5.468;2023-07-31T02:02:32;100855.31;;;18.47;90.65
73341;BME280;61578;52.002;5.468;2023-07-31T02:03:22;100851.38;;;18.41;90.50
73341;BME280;61578;52.002;5.468;2023-07-31T02:04:12;100857.72;;;18.50;90.10
73341;BME280;61578;52.002;5.468;2023-07-31T02:04:43;100814.66;;;18.22;90.15
73341;BME280;61578;52.002;5.468;2023-07-31T02:05:23;100860.13;;;18.43;90.37
73341;BME280;61578;52.002;5.468;2023-07-31T02:05:56;100848.53;;;18.43;90.21
73341;BME280;61578;52.002;5.468;2023-07-31T02:06:30;100840.22;;;18.36;89.81
73341;BME280;61578;52.002;5.468;2023-07-31T02:07:19;100868.91;;;18.45;89.77
73341;BME280;61578;52.002;5.468;2023-07-31T02:08:09;100853.75;;;18.44;90.05
73341;BME280;61578;52.002;5.468;2023-07-31T02:08:39;100850.41;;;18.42;90.00
73341;BME280;61578;52.002;5.468;2023-07-31T02:09:29;100844.00;;;18.43;89.57
73341;BME280;61578;52.002;5.468;2023-07-31T02:10:18;100841.47;;;18.42;89.86
73341;BME280;61578;52.002;5.468;2023-07-31T02:10:57;100840.63;;;18.41;89.80
73341;BME280;61578;52.002;5.468;2023-07-31T02:11:46;100836.25;;;18.40;90.04
73341;BME280;61578;52.002;5.468;2023-07-31T02:12:35;100827.66;;;18.27;90.51
73341;BME280;61578;52.002;5.468;2023-07-31T02:13:21;100844.88;;;18.34;90.23
73341;BME280;61578;52.002;5.468;2023-07-31T02:13:52;100841.63;;;18.40;90.36
73341;BME280;61578;52.002;5.468;2023-07-31T02:14:42;100835.69;;;18.36;90.21
73341;BME280;61578;52.002;5.468;2023-07-31T02:15:12;100835.25;;;18.41;89.94
73341;BME280;61578;52.002;5.468;2023-07-31T02:15:45;100841.63;;;18.40;90.14
73341;BME280;61578;52.002;5.468;2023-07-31T02:16:34;100834.69;;;18.37;90.14
73341;BME280;61578;52.002;5.468;2023-07-31T02:17:11;100851.81;;;18.36;90.03
73341;BME280;61578;52.002;5.468;2023-07-31T02:17:41;100838.22;;;18.38;89.76
73341;BME280;61578;52.002;5.468;2023-07-31T02:18:12;100834.13;;;18.34;90.39
73341;BME280;61578;52.002;5.468;2023-07-31T02:18:43;100829.19;;;18.39;90.24
73341;BME280;61578;52.002;5.468;2023-07-31T02:19:13;100831.00;;;18.38;90.66
73341;BME280;61578;52.002;5.468;2023-07-31T02:19:44;100841.63;;;18.40;90.00
73341;BME280;61578;52.002;5.468;2023-07-31T02:20:15;100830.03;;;18.39;90.09
73341;BME280;61578;52.002;5.468;2023-07-31T02:20:52;100787.69;;;18.14;90.29
73341;BME280;61578;52.002;5.468;2023-07-31T02:21:23;100820.25;;;18.38;90.82
73341;BME280;61578;52.002;5.468;2023-07-31T02:21:54;100821.13;;;18.39;90.87
73341;BME280;61578;52.002;5.468;2023-07-31T02:22:24;100793.34;;;18.21;90.58
73341;BME280;61578;52.002;5.468;2023-07-31T02:22:55;100820.81;;;18.42;90.54
73341;BME280;61578;52.002;5.468;2023-07-31T02:23:25;100831.56;;;18.42;90.53
73341;BME280;61578;52.002;5.468;2023-07-31T02:23:56;100826.88;;;18.44;90.48
73341;BME280;61578;52.002;5.468;2023-07-31T02:24:30;100834.09;;;18.44;90.43
73341;BME280;61578;52.002;5.468;2023-07-31T02:25:08;100826.19;;;18.42;90.46
73341;BME280;61578;52.002;5.468;2023-07-31T02:25:39;100832.25;;;18.44;90.69
73341;BME280;61578;52.002;5.468;2023-07-31T02:26:13;100826.88;;;18.44;90.81
73341;BME280;61578;52.002;5.468;2023-07-31T02:26:43;100823.50;;;18.42;90.67
73341;BME280;61578;52.002;5.468;2023-07-31T02:27:33;100825.88;;;18.45;90.94
73341;BME280;61578;52.002;5.468;2023-07-31T02:28:15;100820.66;;;18.44;90.74
73341;BME280;61578;52.002;5.468;2023-07-31T02:28:49;100819.81;;;18.43;90.84
73341;BME280;61578;52.002;5.468;2023-07-31T02:29:39;100821.06;;;18.49;90.59
73341;BME280;61578;52.002;5.468;2023-07-31T02:30:28;100821.06;;;18.49;90.89
73341;BME280;61578;52.002;5.468;2023-07-31T02:31:17;100820.06;;;18.50;90.99
73341;BME280;61578;52.002;5.468;2023-07-31T02:31:48;100805.50;;;18.43;90.83
73341;BME280;61578;52.002;5.468;2023-07-31T02:32:38;100814.00;;;18.48;90.83
73341;BME280;61578;52.002;5.468;2023-07-31T02:33:11;100818.22;;;18.50;90.81
73341;BME280;61578;52.002;5.468;2023-07-31T02:33:42;100808.47;;;18.49;90.66
73341;BME280;61578;52.002;5.468;2023-07-31T02:34:31;100815.53;;;18.50;90.68
73341;BME280;61578;52.002;5.468;2023-07-31T02:35:21;100794.75;;;18.43;90.89
73341;BME280;61578;52.002;5.468;2023-07-31T02:35:54;100813.69;;;18.51;90.38
73341;BME280;61578;52.002;5.468;2023-07-31T02:36:43;100819.22;;;18.49;90.26
73341;BME280;61578;52.002;5.468;2023-07-31T02:37:33;100775.63;;;18.28;90.34
73341;BME280;61578;52.002;5.468;2023-07-31T02:38:07;100812.16;;;18.48;90.44
73341;BME280;61578;52.002;5.468;2023-07-31T02:38:38;100765.63;;;18.20;90.41
73341;BME280;61578;52.002;5.468;2023-07-31T02:39:27;100771.50;;;18.24;90.29
73341;BME280;61578;52.002;5.468;2023-07-31T02:39:58;100811.16;;;18.49;90.72
73341;BME280;61578;52.002;5.468;2023-07-31T02:40:29;100809.31;;;18.50;90.22
73341;BME280;61578;52.002;5.468;2023-07-31T02:41:18;100805.78;;;18.49;90.58
73341;BME280;61578;52.002;5.468;2023-07-31T02:41:49;100799.41;;;18.50;90.60
73341;BME280;61578;52.002;5.468;2023-07-31T02:42:20;100804.94;;;18.49;90.48
73341;BME280;61578;52.002;5.468;2023-07-31T02:42:50;100819.94;;;18.51;90.67
73341;BME280;61578;52.002;5.468;2023-07-31T02:43:40;100797.72;;;18.49;90.67
73341;BME280;61578;52.002;5.468;2023-07-31T02:44:16;100798.56;;;18.50;90.64
73341;BME280;61578;52.002;5.468;2023-07-31T02:44:47;100805.78;;;18.49;90.60
73341;BME280;61578;52.002;5.468;2023-07-31T02:45:37;100798.41;;;18.51;90.91
73341;BME280;61578;52.002;5.468;2023-07-31T02:46:20;100799.25;;;18.52;90.92
73341;BME280;61578;52.002;5.468;2023-07-31T02:46:54;100810.31;;;18.49;90.59
73341;BME280;61578;52.002;5.468;2023-07-31T02:47:40;100804.63;;;18.52;90.83
73341;BME280;61578;52.002;5.468;2023-07-31T02:48:26;100806.31;;;18.53;90.69
73341;BME280;61578;52.002;5.468;2023-07-31T02:49:15;100807.47;;;18.50;89.86
73341;BME280;61578;52.002;5.468;2023-07-31T02:50:06;100770.22;;;18.28;89.96
73341;BME280;61578;52.002;5.468;2023-07-31T02:50:37;100814.00;;;18.48;89.80
73341;BME280;61578;52.002;5.468;2023-07-31T02:51:26;100808.31;;;18.51;89.73
73341;BME280;61578;52.002;5.468;2023-07-31T02:51:57;100810.88;;;18.52;90.07
73341;BME280;61578;52.002;5.468;2023-07-31T02:52:31;100800.69;;;18.46;90.18
73341;BME280;61578;52.002;5.468;2023-07-31T02:53:20;100798.41;;;18.51;89.87
73341;BME280;61578;52.002;5.468;2023-07-31T02:53:55;100804.94;;;18.49;89.61
73341;BME280;61578;52.002;5.468;2023-07-31T02:54:40;100792.25;;;18.41;90.27
73341;BME280;61578;52.002;5.468;2023-07-31T02:55:29;100804.38;;;18.45;89.80
73341;BME280;61578;52.002;5.468;2023-07-31T02:56:18;100799.31;;;18.42;90.10
73341;BME280;61578;52.002;5.468;2023-07-31T02:56:49;100800.97;;;18.43;90.42
73341;BME280;61578;52.002;5.468;2023-07-31T02:57:26;100791.06;;;18.44;89.64
73341;BME280;61578;52.002;5.468;2023-07-31T02:57:56;100798.28;;;18.43;89.83
73341;BME280;61578;52.002;5.468;2023-07-31T02:58:40;100794.94;;;18.41;89.99
73341;BME280;61578;52.002;5.468;2023-07-31T02:59:23;100793.31;;;18.48;90.46
73341;BME280;61578;52.002;5.468;2023-07-31T02:59:55;100758.06;;;18.24;89.67
73341;BME280;61578;52.002;5.468;2023-07-31T03:00:44;100802.38;;;18.47;90.15
73341;BME280;61578;52.002;5.468;2023-07-31T03:01:34;100755.84;;;18.19;89.99
73341;BME280;61578;52.002;5.468;2023-07-31T03:02:08;100798.16;;;18.45;89.51
73341;BME280;61578;52.002;5.468;2023-07-31T03:02:39;100807.75;;;18.47;89.73
73341;BME280;61578;52.002;5.468;2023-07-31T03:03:28;100798.16;;;18.45;89.95
73341;BME280;61578;52.002;5.468;2023-07-31T03:03:59;100788.84;;;18.39;89.76
73341;BME280;61578;52.002;5.468;2023-07-31T03:04:48;100791.91;;;18.44;89.96
73341;BME280;61578;52.002;5.468;2023-07-31T03:05:19;100746.25;;;18.17;90.05
73341;BME280;61578;52.002;5.468;2023-07-31T03:05:50;100795.78;;;18.42;89.88
73341;BME280;61578;52.002;5.468;2023-07-31T03:06:40;100806.22;;;18.45;89.83
73341;BME280;61578;52.002;5.468;2023-07-31T03:07:13;100804.38;;;18.45;89.78
73341;BME280;61578;52.002;5.468;2023-07-31T03:07:47;100804.97;;;18.39;89.54
73341;BME280;61578;52.002;5.468;2023-07-31T03:08:18;100751.06;;;18.13;90.22
73341;BME280;61578;52.002;5.468;2023-07-31T03:08:48;100789.13;;;18.36;89.66
73341;BME280;61578;52.002;5.468;2023-07-31T03:09:19;100803.66;;;18.43;89.52
73341;BME280;61578;52.002;5.468;2023-07-31T03:09:50;100805.13;;;18.37;89.49
73341;BME280;61578;52.002;5.468;2023-07-31T03:10:39;100807.22;;;18.44;89.97
73341;BME280;61578;52.002;5.468;2023-07-31T03:11:19;100803.84;;;18.42;89.70
73341;BME280;61578;52.002;5.468;2023-07-31T03:11:50;100802.81;;;18.43;89.51
73341;BME280;61578;52.002;5.468;2023-07-31T03:12:40;100797.63;;;18.41;90.01
73341;BME280;61578;52.002;5.468;2023-07-31T03:13:26;100795.94;;;18.40;90.25
73341;BME280;61578;52.002;5.468;2023-07-31T03:13:57;100789.84;;;18.38;90.47
73341;BME280;61578;52.002;5.468;2023-07-31T03:14:46;100795.94;;;18.40;90.39
73341;BME280;61578;52.002;5.468;2023-07-31T03:15:32;100801.59;;;18.37;90.30
73341;BME280;61578;52.002;5.468;2023-07-31T03:16:25;100799.59;;;18.39;89.44
73341;BME280;61578;52.002;5.468;2023-07-31T03:16:56;100804.13;;;18.38;90.02
73341;BME280;61578;52.002;5.468;2023-07-31T03:17:36;100795.94;;;18.40;89.07
73341;BME280;61578;52.002;5.468;2023-07-31T03:18:26;100804.13;;;18.38;88.93
73341;BME280;61578;52.002;5.468;2023-07-31T03:19:02;100805.69;;;18.41;89.38
73341;BME280;61578;52.002;5.468;2023-07-31T03:19:33;100805.13;;;18.37;88.85
73341;BME280;61578;52.002;5.468;2023-07-31T03:20:22;100799.47;;;18.41;89.49
73341;BME280;61578;52.002;5.468;2023-07-31T03:21:12;100792.81;;;18.35;89.37
73341;BME280;61578;52.002;5.468;2023-07-31T03:21:46;100794.53;;;18.36;89.65
73341;BME280;61578;52.002;5.468;2023-07-31T03:22:36;100799.59;;;18.39;88.79
73341;BME280;61578;52.002;5.468;2023-07-31T03:23:25;100801.59;;;18.37;88.45
73341;BME280;61578;52.002;5.468;2023-07-31T03:23:56;100798.06;;;18.36;88.40
73341;BME280;61578;52.002;5.468;2023-07-31T03:24:45;100795.50;;;18.35;88.90
73341;BME280;61578;52.002;5.468;2023-07-31T03:25:34;100796.34;;;18.35;89.21
73341;BME280;61578;52.002;5.468;2023-07-31T03:26:23;100791.59;;;18.29;88.52
73341;BME280;61578;52.002;5.468;2023-07-31T03:26:54;100787.75;;;18.32;88.49
73341;BME280;61578;52.002;5.468;2023-07-31T03:27:43;100789.03;;;18.28;88.58
73341;BME280;61578;52.002;5.468;2023-07-31T03:28:14;100793.16;;;18.32;88.54
73341;BME280;61578;52.002;5.468;2023-07-31T03:28:45;100801.34;;;18.30;88.13
73341;BME280;61578;52.002;5.468;2023-07-31T03:29:34;100787.75;;;18.32;88.61
73341;BME280;61578;52.002;5.468;2023-07-31T03:30:06;100794.13;;;18.31;89.13
73341;BME280;61578;52.002;5.468;2023-07-31T03:30:37;100792.44;;;18.30;89.06
73341;BME280;61578;52.002;5.468;2023-07-31T03:31:27;100794.28;;;18.29;88.85
73341;BME280;61578;52.002;5.468;2023-07-31T03:31:58;100794.28;;;18.29;89.30
73341;BME280;61578;52.002;5.468;2023-07-31T03:32:29;100778.06;;;18.21;88.91
73341;BME280;61578;52.002;5.468;2023-07-31T03:33:18;100785.50;;;18.27;88.71